Flight Track Log - Related Links

Times and Time Zones

All times are in EDT time to prevent confusion due to time zone crossing. See the SWA558 flight status page for this flight to view local times or setup timezone preferences in your user account.

Time Position Orientation Groundspeed Altitude Reporting Facility
EDT Latitude Longitude Course Direction KTS MPH feet Rate Location/Type
Thu 09:56:55 AM 27.9667 -82.5500 192° South 150 173 800  Level Tampa TRACON
Thu 09:58:19 AM 27.9000 -82.5667 192° South 189 217 4,300 2,957 Climbing Tampa TRACON
Thu 09:59:13 AM 27.8667 -82.6167 233° Southwest 228 262 7,600 3,050 Climbing Tampa TRACON
Thu 10:00:19 AM 27.9500 -82.6333 350° North 301 346 10,400 2,438 Climbing Tampa TRACON
Thu 10:02:52 AM 28.1975 -82.6006 North 371 427 16,500 2,507 Climbing Jacksonville Center
Thu 10:03:52 AM 28.3081 -82.5908 North 376 433 19,300 2,650 Climbing Jacksonville Center
Thu 10:04:52 AM 28.4186 -82.5833 North 387 445 21,800 2,550 Climbing Jacksonville Center
Thu 10:05:52 AM 28.5356 -82.5878 358° North 404 465 24,400 2,250 Climbing Jacksonville Center
Thu 10:06:52 AM 28.6567 -82.5897 359° North 416 479 26,300 2,000 Climbing Jacksonville Center
Thu 10:07:52 AM 28.7631 -82.6014 355° North 424 488 28,400 2,000 Climbing Jacksonville Center
Thu 10:08:52 AM 28.8842 -82.6200 352° North 429 494 30,300 1,900 Climbing Jacksonville Center
Thu 10:09:52 AM 29.0053 -82.6361 353° North 429 494 32,200 1,950 Climbing Jacksonville Center
Thu 10:10:52 AM 29.1264 -82.6500 354° North 429 494 34,200 1,900 Climbing Jacksonville Center
Thu 10:11:52 AM 29.2456 -82.6617 355° North 429 494 36,000 900 Climbing Jacksonville Center
Thu 10:12:52 AM 29.3664 -82.6233 15° North 429 494 36,000 -150 Level Jacksonville Center
Thu 10:13:52 AM 29.4853 -82.5847 16° North 429 494 35,700 -500 Descending Jacksonville Center
Thu 10:14:52 AM 29.6042 -82.5461 16° North 429 494 35,000 -350 Descending Jacksonville Center
Thu 10:15:52 AM 29.7211 -82.5050 17° North 434 499 35,000  Level Jacksonville Center
Thu 10:16:52 AM 29.8378 -82.4664 16° North 434 499 35,000  Level Jacksonville Center
Thu 10:17:52 AM 29.9547 -82.4275 16° North 434 499 35,000  Level Jacksonville Center
Thu 10:18:52 AM 30.0733 -82.3908 15° North 434 499 35,000  Level Jacksonville Center
Thu 10:19:52 AM 30.1922 -82.3494 17° North 434 499 35,000  Level Jacksonville Center
Thu 10:20:52 AM 30.3111 -82.3056 18° North 434 499 35,000 -50 Level Jacksonville Center
Thu 10:21:52 AM 30.4278 -82.2639 17° North 439 505 34,900 -1,000 Descending Jacksonville Center
Thu 10:22:52 AM 30.5467 -82.2269 15° North 439 505 33,000 -1,950 Descending Jacksonville Center
Thu 10:23:52 AM 30.6614 -82.1897 16° North 429 494 31,000 -1,000 Descending Jacksonville Center
Thu 10:24:52 AM 30.7758 -82.1503 16° North 429 494 31,000  Level Jacksonville Center
Thu 10:25:52 AM 30.8925 -82.1131 15° North 429 494 31,000  Level Jacksonville Center
Thu 10:26:52 AM 31.0175 -82.0683 17° North 429 494 31,000  Level Jacksonville Center
Thu 10:27:52 AM 31.1342 -82.0286 16° North 434 499 31,000  Level Jacksonville Center
Thu 10:28:52 AM 31.2508 -81.9886 16° North 434 499 31,000  Level Jacksonville Center
Thu 10:29:52 AM 31.3717 -81.9436 18° North 434 499 31,000  Level Jacksonville Center
Thu 10:30:52 AM 31.4861 -81.9058 16° North 434 499 31,000  Level Jacksonville Center
Thu 10:31:52 AM 31.5944 -81.8681 17° North 434 499 31,000  Level Jacksonville Center
Thu 10:32:52 AM 31.7214 -81.8228 17° North 434 499 31,000  Level Jacksonville Center
Thu 10:33:52 AM 31.8381 -81.7822 16° North 434 499 31,000  Level Jacksonville Center
Thu 10:34:52 AM 31.9442 -81.7467 16° North 434 499 31,000  Level Jacksonville Center
Thu 10:35:52 AM 32.0733 -81.6986 17° North 439 505 31,000  Level Jacksonville Center
Thu 10:36:52 AM 32.1794 -81.6628 16° North 439 505 31,000  Level Jacksonville Center
Thu 10:37:52 AM 32.3083 -81.6169 17° North 439 505 31,000  Level Jacksonville Center
Thu 10:38:52 AM 32.4269 -81.5758 16° North 439 505 31,000  Level Jacksonville Center
Thu 10:39:52 AM 32.5331 -81.5372 17° North 439 505 31,000  Level Jacksonville Center
Thu 10:40:52 AM 32.6578 -81.4861 19° North 438 504 31,000  Level Jacksonville Center
Thu 10:41:52 AM 32.7611 -81.4056 33° Northeast 438 504 31,000  Level Jacksonville Center
Thu 10:42:52 AM 32.8644 -81.3197 35° Northeast 438 504 31,000  Level Jacksonville Center
Thu 10:43:52 AM 32.9697 -81.2361 34° Northeast 443 510 31,000  Level Jacksonville Center
Thu 10:44:52 AM 33.0753 -81.1547 33° Northeast 443 510 31,000  Level Jacksonville Center
Thu 10:45:52 AM 33.1783 -81.0683 35° Northeast 448 516 31,000  Level Jacksonville Center
Thu 10:46:52 AM 33.2814 -80.9869 33° Northeast 448 516 31,000  Level Jacksonville Center
Thu 10:47:52 AM 33.3844 -80.9000 35° Northeast 443 510 31,000  Level Jacksonville Center
Thu 10:48:52 AM 33.4875 -80.8156 34° Northeast 443 510 31,000 -150 Level Jacksonville Center
Thu 10:49:52 AM 33.5883 -80.7333 34° Northeast 438 504 30,700 -650 Descending Jacksonville Center
Thu 10:50:52 AM 33.6911 -80.6486 34° Northeast 438 504 29,700 -850 Descending Jacksonville Center
Thu 10:51:52 AM 33.7942 -80.5633 35° Northeast 443 510 29,000 -350 Descending Jacksonville Center
Thu 10:52:52 AM 33.9008 -80.4756 34° Northeast 443 510 29,000  Level Jacksonville Center
Thu 10:53:52 AM 34.0014 -80.3900 35° Northeast 443 510 29,000  Level Jacksonville Center
Thu 10:54:52 AM 34.1061 -80.3044 34° Northeast 443 510 29,000  Level Jacksonville Center
Thu 10:56:50 AM 34.2939 -80.1442 35° Northeast 435 501 29,000  Level Washington Center
Thu 10:57:50 AM 34.3953 -80.0567 35° Northeast 441 507 29,000  Level Washington Center
Thu 10:58:50 AM 34.4983 -79.9767 33° Northeast 441 507 29,000  Level Washington Center
Thu 10:59:50 AM 34.5953 -79.8886 37° Northeast 441 507 29,000  Level Washington Center
Thu 11:00:50 AM 34.6964 -79.8028 35° Northeast 441 507 29,000  Level Washington Center
Thu 11:01:50 AM 34.7975 -79.7172 35° Northeast 441 507 29,000  Level Washington Center
Thu 11:02:50 AM 34.9072 -79.6239 35° Northeast 441 507 29,000  Level Washington Center
Thu 11:03:50 AM 35.0061 -79.5375 36° Northeast 442 509 29,000  Level Washington Center
Thu 11:04:50 AM 35.1047 -79.4536 35° Northeast 437 503 29,000  Level Washington Center
Thu 11:05:50 AM 35.2014 -79.3692 36° Northeast 437 503 29,000  Level Washington Center
Thu 11:06:50 AM 35.3000 -79.2822 36° Northeast 437 503 29,000  Level Washington Center
Thu 11:07:50 AM 35.3986 -79.1975 35° Northeast 437 503 29,000  Level Washington Center
Thu 11:08:50 AM 35.4972 -79.1103 36° Northeast 437 503 29,000  Level Washington Center
Thu 11:09:50 AM 35.5914 -79.0275 36° Northeast 431 496 29,000  Level Washington Center
Thu 11:10:50 AM 35.6878 -78.9422 36° Northeast 431 496 29,000  Level Washington Center
Thu 11:11:50 AM 35.7861 -78.8542 36° Northeast 431 496 29,000  Level Washington Center
Thu 11:12:50 AM 35.8844 -78.7658 36° Northeast 431 496 29,000  Level Washington Center
Thu 11:13:50 AM 35.9828 -78.6800 35° Northeast 431 496 29,000  Level Washington Center
Thu 11:14:50 AM 36.0831 -78.5889 36° Northeast 437 503 29,000  Level Washington Center
Thu 11:15:50 AM 36.1792 -78.5025 36° Northeast 437 503 29,000  Level Washington Center
Thu 11:16:50 AM 36.2772 -78.4133 36° Northeast 437 503 29,000  Level Washington Center
Thu 11:17:50 AM 36.3794 -78.3242 35° Northeast 442 509 29,000  Level Washington Center
Thu 11:18:50 AM 36.4753 -78.2344 37° Northeast 442 509 29,000  Level Washington Center
Thu 11:19:50 AM 36.5733 -78.1472 36° Northeast 442 509 29,000  Level Washington Center
Thu 11:20:50 AM 36.6606 -78.0672 36° Northeast 442 509 29,000  Level Washington Center
Thu 11:21:50 AM 36.7561 -77.9744 38° Northeast 442 509 29,000  Level Washington Center
Thu 11:22:50 AM 36.8561 -77.8867 35° Northeast 442 509 29,000  Level Washington Center
Thu 11:23:50 AM 36.9517 -77.7933 38° Northeast 442 509 29,000  Level Washington Center
Thu 11:24:50 AM 37.0492 -77.7050 36° Northeast 442 509 29,000  Level Washington Center
Thu 11:25:50 AM 37.1447 -77.6139 37° Northeast 442 509 29,000  Level Washington Center
Thu 11:26:50 AM 37.2442 -77.5225 36° Northeast 442 509 29,000  Level Washington Center
Thu 11:27:50 AM 37.3417 -77.4308 37° Northeast 442 509 29,000  Level Washington Center
Thu 11:28:50 AM 37.4408 -77.3392 36° Northeast 442 509 29,000  Level Washington Center
Thu 11:29:50 AM 37.5383 -77.2444 38° Northeast 442 509 29,000  Level Washington Center
Thu 11:30:50 AM 37.6375 -77.1522 36° Northeast 442 509 29,000  Level Washington Center
Thu 11:31:50 AM 37.7367 -77.0569 37° Northeast 442 509 29,000  Level Washington Center
Thu 11:32:50 AM 37.8358 -76.9644 36° Northeast 442 509 29,000  Level Washington Center
Thu 11:33:50 AM 37.9350 -76.8686 37° Northeast 442 509 29,000  Level Washington Center
Thu 11:34:50 AM 38.0339 -76.7728 37° Northeast 442 509 29,000  Level Washington Center
Thu 11:35:50 AM 38.1308 -76.6794 37° Northeast 442 509 29,000  Level Washington Center
Thu 11:36:50 AM 38.2317 -76.5831 37° Northeast 442 509 29,000  Level Washington Center
Thu 11:37:50 AM 38.3325 -76.4836 38° Northeast 442 509 29,000  Level Washington Center
Thu 11:38:50 AM 38.4292 -76.3894 37° Northeast 442 509 29,000  Level Washington Center
Thu 11:39:50 AM 38.5297 -76.2922 37° Northeast 442 509 29,000  Level Washington Center
Thu 11:40:50 AM 38.6283 -76.1922 38° Northeast 442 509 29,000  Level Washington Center
Thu 11:41:50 AM 38.7289 -76.0972 36° Northeast 442 509 29,000  Level Washington Center
Thu 11:42:50 AM 38.8272 -75.9994 38° Northeast 442 509 29,000  Level Washington Center
Thu 11:43:50 AM 38.9253 -75.9039 37° Northeast 442 509 29,000  Level Washington Center
Thu 11:44:50 AM 39.0256 -75.8053 37° Northeast 442 509 29,000  Level Washington Center
Thu 11:45:50 AM 39.1239 -75.7094 37° Northeast 442 509 29,000  Level Washington Center
Thu 11:46:50 AM 39.2258 -75.6078 38° Northeast 442 509 29,000  Level Washington Center
Thu 11:47:50 AM 39.3258 -75.5083 38° Northeast 442 509 29,000  Level Washington Center
Thu 11:48:50 AM 39.4258 -75.4061 38° Northeast 448 516 29,000  Level Washington Center
Thu 11:49:50 AM 39.5256 -75.3036 38° Northeast 448 516 29,000  Level Washington Center
Thu 11:50:50 AM 39.6253 -75.2036 38° Northeast 448 516 29,000  Level Washington Center
Thu 11:51:17 AM 39.6778 -75.1539 36° Northeast 443 510 29,000  Level New York Center
Thu 11:52:17 AM 39.7625 -75.0594 41° Northeast 448 516 29,000  Level New York Center
Thu 11:53:18 AM 39.8642 -74.9575 38° Northeast 453 521 29,000  Level New York Center
Thu 11:54:15 AM 39.9744 -74.8422 39° Northeast 459 528 29,000  Level New York Center
Thu 11:55:16 AM 40.0736 -74.7503 35° Northeast 450 518 29,000  Level New York Center
Thu 11:56:16 AM 40.1661 -74.6633 36° Northeast 450 518 29,000  Level New York Center
Thu 11:57:17 AM 40.2822 -74.5500 37° Northeast 461 531 29,000  Level New York Center
Thu 11:58:17 AM 40.3856 -74.4494 37° Northeast 461 531 29,000  Level New York Center
Thu 12:00:11 PM 40.5556 -74.2892 36° Northeast 476 548 29,000  Level Boston Center
Thu 12:01:12 PM 40.6592 -74.1883 36° Northeast 470 541 29,000  Level Boston Center
Thu 12:02:12 PM 40.7944 -74.0631 35° Northeast 464 534 29,000  Level Boston Center
Thu 12:03:10 PM 40.9061 -73.9833 28° Northeast 454 522 29,000  Level Boston Center
Thu 12:04:11 PM 41.0256 -73.9231 21° North 449 517 29,000  Level Boston Center
Thu 12:05:11 PM 41.1450 -73.8678 19° North 449 517 29,000  Level Boston Center
Thu 12:06:12 PM 41.2647 -73.8069 21° North 454 522 29,000  Level Boston Center
Thu 12:07:24 PM 41.3842 -73.7486 20° North 449 517 29,000  Level Boston Center
Thu 12:08:22 PM 41.5244 -73.6794 20° North 449 517 29,000  Level Boston Center
Thu 12:09:22 PM 41.6397 -73.6233 20° North 444 511 29,000  Level Boston Center
Thu 12:10:23 PM 41.7592 -73.5672 19° North 450 518 29,000  Level Boston Center
Thu 12:11:23 PM 41.8764 -73.5081 21° North 450 518 29,000  Level Boston Center
Thu 12:12:24 PM 41.9936 -73.4483 21° North 450 518 29,000  Level Boston Center
Thu 12:13:22 PM 42.0922 -73.3969 21° North 451 519 29,000 -814 Level Boston Center
Thu 12:14:22 PM 42.2097 -73.2894 34° Northeast 446 513 27,400 -1,537 Descending Boston Center
Thu 12:15:23 PM 42.2919 -73.1558 50° Northeast 444 511 25,900 -1,537 Descending Boston Center
Thu 12:16:23 PM 42.3781 -73.0050 52° Northeast 478 550 24,300 -1,587 Descending Boston Center
Thu 12:17:24 PM 42.4581 -72.8650 52° Northeast 478 550 22,700 -1,866 Descending Boston Center
Thu 12:18:22 PM 42.5375 -72.7303 51° Northeast 462 532 20,600 -2,118 Descending Boston Center
Thu 12:19:23 PM 42.6067 -72.6178 50° Northeast 442 509 18,500 -2,115 Descending Boston Center
Thu 12:20:24 PM 42.6797 -72.4939 51° Northeast 431 496 16,300 -2,231 Descending Boston Center
Thu 12:21:24 PM 42.7506 -72.3694 52° Northeast 426 490 14,000 -2,492 Descending Boston Center
Thu 12:22:22 PM 42.7983 -72.2108 68° East 405 466 11,400 -1,916 Descending Boston Center
Thu 12:23:23 PM 42.8125 -72.0581 83° East 400 460 10,200 -1,131 Descending Boston Center
Thu 12:24:24 PM 42.8369 -71.9275 76° East 368 423 9,100 -984 Descending Boston Center
Thu 12:25:25 PM 42.8697 -71.8142 68° East 333 383 8,200 -1,271 Descending Boston Center
Thu 12:26:22 PM 42.9025 -71.7089 67° East 299 344 6,600 -1,590 Descending Boston Center
Thu 12:27:22 PM 42.9122 -71.6122 82° East 278 320 5,100 -793 Descending Boston Center
Thu 12:28:23 PM 42.8678 -71.5336 128° Southeast 248 285 5,000 -344 Descending Boston Center
Thu 12:29:24 PM 42.8361 -71.4717 125° Southeast 236 272 4,400 -694 Descending Boston Center
Thu 12:30:24 PM 42.7856 -71.4272 147° Southeast 214 246 3,600 -700 Descending Boston Center
Thu 12:31:24 PM 42.7458 -71.3942 149° Southeast 195 224 3,000 -305 Descending Boston Center
Thu 12:32:22 PM 42.7831 -71.3622 32° Northeast 106 122 3,000 -303 Level Boston Center
Thu 12:33:23 PM 42.8247 -71.3728 349° North 141 162 2,400 -793 Descending Boston Center
Thu 12:34:23 PM 42.8667 -71.3978 336° Northwest 162 186 1,400 -793 Descending Boston Center
Thu 12:35:24 PM 42.8981 -71.4142 339° North 136 157 800 650 Descending Boston Center
Thu 12:36:23 PM 42.9983 -71.4294 354° North 131 151 2,700 1,932 Climbing Boston Center
Thu 12:38:00 PM 42.9328 -71.4358 316° Northwest  Level Estimated

Login

Don't have an account? Register now (free) for customized features, flight alerts, and more!